Time;durP1;ratioP1;P1;durP2;ratioP2;P2;SDS_P1;SDS_P2;PMS_P1;PMS_P2;Temp;Humidity;BMP_temperature;BMP_pressure;BME280_temperature;BME280_humidity;BME280_pressure;Samples;Min_cycle;Max_cycle;Signal;HPM_P1;HPM_P2
2022/04/10 00:00:28;;;;;;;11.85;5.10;;;19.60;54.60;;;;;;5026729;28;20045;-59
2022/04/10 00:02:54;;;;;;;13.40;4.68;;;19.50;53.50;;;;;;5023303;28;20044;-59
2022/04/10 00:05:19;;;;;;;12.73;4.43;;;19.50;53.50;;;;;;5018696;28;20124;-58
2022/04/10 00:07:45;;;;;;;11.65;4.38;;;19.50;53.50;;;;;;5019246;28;20026;-59
2022/04/10 00:10:11;;;;;;;11.65;4.70;;;19.40;53.50;;;;;;5013786;28;20048;-58
2022/04/10 00:12:36;;;;;;;12.85;4.53;;;19.40;53.50;;;;;;5020044;28;20026;-59
2022/04/10 00:15:03;;;;;;;14.35;4.63;;;19.40;53.50;;;;;;5027121;28;20021;-59
2022/04/10 00:17:28;;;;;;;12.50;4.47;;;19.30;53.40;;;;;;5019065;28;20131;-58
2022/04/10 00:19:54;;;;;;;11.38;4.35;;;19.30;53.50;;;;;;5024750;28;20025;-59
2022/04/10 00:22:20;;;;;;;9.95;4.05;;;19.30;53.50;;;;;;5014266;28;20575;-58
2022/04/10 00:24:45;;;;;;;10.95;4.15;;;19.30;53.50;;;;;;5018717;28;20037;-59
2022/04/10 00:27:14;;;;;;;12.38;4.32;;;19.30;53.50;;;;;;5012165;28;20034;-58
2022/04/10 00:29:41;;;;;;;12.18;4.53;;;19.20;53.50;;;;;;5022403;28;20049;-59
2022/04/10 00:32:07;;;;;;;12.70;4.35;;;19.20;53.50;;;;;;5020094;28;20022;-58
2022/04/10 00:34:32;;;;;;;11.52;4.05;;;19.20;53.50;;;;;;5022289;28;20044;-58
2022/04/10 00:36:58;;;;;;;11.32;4.18;;;19.20;53.40;;;;;;5013317;28;20026;-59
2022/04/10 00:39:24;;;;;;;9.93;3.78;;;19.20;53.50;;;;;;5017696;28;20088;-58
2022/04/10 00:41:50;;;;;;;11.02;3.80;;;19.10;53.40;;;;;;5024443;28;20040;-59
2022/04/10 00:44:16;;;;;;;9.98;3.90;;;19.10;53.30;;;;;;5019753;28;20037;-58
2022/04/10 00:46:41;;;;;;;8.23;3.55;;;19.00;53.30;;;;;;5027423;28;20029;-58
2022/04/10 00:49:07;;;;;;;9.65;4.13;;;19.00;53.30;;;;;;5015074;28;20037;-59
2022/04/10 00:51:43;;;;;;;9.93;3.83;;;19.00;53.20;;;;;;5019928;28;20091;-58
2022/04/10 00:54:17;;;;;;;10.57;3.55;;;19.00;53.20;;;;;;5013476;28;20116;-58
2022/04/10 00:56:46;;;;;;;10.90;3.95;;;19.00;53.10;;;;;;5018821;28;20034;-59
2022/04/10 00:59:12;;;;;;;7.93;3.28;;;18.90;53.20;;;;;;5016607;28;20116;-59
2022/04/10 01:01:38;;;;;;;10.23;3.63;;;18.90;53.10;;;;;;5015945;28;20014;-58
2022/04/10 01:04:04;;;;;;;9.20;3.60;;;18.90;53.10;;;;;;5018613;28;20025;-58
2022/04/10 01:06:31;;;;;;;11.73;3.67;;;18.90;53.10;;;;;;5020951;28;20071;-59
2022/04/10 01:08:57;;;;;;;9.80;3.50;;;18.80;53.00;;;;;;5019789;28;20025;-59
2022/04/10 01:11:23;;;;;;;9.80;3.67;;;18.80;53.00;;;;;;5018265;28;20525;-59
2022/04/10 01:13:49;;;;;;;10.98;3.42;;;18.80;52.90;;;;;;5015828;28;20092;-59
2022/04/10 01:16:14;;;;;;;9.23;3.40;;;18.70;52.90;;;;;;5022864;28;20037;-58
2022/04/10 01:18:40;;;;;;;8.82;3.17;;;18.70;52.90;;;;;;5023788;28;20025;-58
2022/04/10 01:21:06;;;;;;;10.07;3.50;;;18.70;52.80;;;;;;5022905;28;20845;-58
2022/04/10 01:23:32;;;;;;;9.00;3.20;;;18.70;52.80;;;;;;5020449;28;20045;-58
2022/04/10 01:25:57;;;;;;;8.93;3.28;;;18.60;52.70;;;;;;5018808;28;20025;-59
2022/04/10 01:28:23;;;;;;;9.80;3.58;;;18.60;52.70;;;;;;5018316;28;20075;-58
2022/04/10 01:30:48;;;;;;;9.48;3.28;;;18.60;52.60;;;;;;5020526;28;20045;-58
2022/04/10 01:33:14;;;;;;;11.15;3.58;;;18.60;52.70;;;;;;5021140;28;20034;-59
2022/04/10 01:35:40;;;;;;;9.40;3.30;;;18.60;52.80;;;;;;5017179;28;20029;-58
2022/04/10 01:38:06;;;;;;;8.30;3.30;;;18.60;52.80;;;;;;5014648;28;20014;-58
2022/04/10 01:40:32;;;;;;;10.25;3.25;;;18.50;52.80;;;;;;5019089;28;20041;-58
2022/04/10 01:42:57;;;;;;;9.18;2.90;;;18.50;52.80;;;;;;5019401;28;20025;-58
2022/04/10 01:45:23;;;;;;;10.02;3.58;;;18.50;52.80;;;;;;5012842;28;20120;-58
2022/04/10 01:47:52;;;;;;;11.35;3.17;;;18.50;52.80;;;;;;5016806;28;20045;-59
2022/04/10 01:50:19;;;;;;;9.05;3.30;;;18.50;52.60;;;;;;5015451;28;20042;-58
2022/04/10 01:52:45;;;;;;;7.25;3.13;;;18.40;52.60;;;;;;5015695;28;20480;-58
2022/04/10 01:55:10;;;;;;;8.10;2.90;;;18.40;52.50;;;;;;5011641;28;20029;-59
2022/04/10 01:57:36;;;;;;;9.20;2.95;;;18.40;52.70;;;;;;5012477;28;20156;-58
2022/04/10 02:00:03;;;;;;;7.65;2.88;;;18.40;52.70;;;;;;5016629;28;20061;-58
2022/04/10 02:02:29;;;;;;;6.72;2.78;;;18.40;52.60;;;;;;5016315;28;20032;-58
2022/04/10 02:04:55;;;;;;;8.40;3.00;;;18.40;52.60;;;;;;5013796;28;20021;-59
2022/04/10 02:07:20;;;;;;;8.07;2.90;;;18.30;52.70;;;;;;5012837;28;20030;-59
2022/04/10 02:09:46;;;;;;;7.60;2.75;;;18.30;52.60;;;;;;5016807;28;20124;-58
2022/04/10 02:12:11;;;;;;;7.30;2.72;;;18.30;52.50;;;;;;5014508;28;20473;-58
2022/04/10 02:14:37;;;;;;;9.20;3.05;;;18.30;52.50;;;;;;5017186;28;20594;-58
2022/04/10 02:17:03;;;;;;;6.78;2.72;;;18.20;52.40;;;;;;5017174;28;20026;-58
2022/04/10 02:19:29;;;;;;;7.70;2.70;;;18.20;52.30;;;;;;5012400;28;20034;-58
2022/04/10 02:21:57;;;;;;;7.85;2.92;;;18.20;52.30;;;;;;5011946;28;20031;-58
2022/04/10 02:24:23;;;;;;;7.97;2.75;;;18.20;52.20;;;;;;5016262;28;20037;-58
2022/04/10 02:26:49;;;;;;;7.80;3.05;;;18.20;52.20;;;;;;5015479;28;20034;-58
2022/04/10 02:29:15;;;;;;;6.15;2.60;;;18.20;52.30;;;;;;5013426;28;20051;-58
2022/04/10 02:31:40;;;;;;;7.40;2.63;;;18.10;52.20;;;;;;5017745;28;20271;-59
2022/04/10 02:34:06;;;;;;;7.18;2.53;;;18.10;52.10;;;;;;5018873;28;20578;-58
2022/04/10 02:36:32;;;;;;;7.78;2.83;;;18.10;52.40;;;;;;5021242;28;20045;-58
2022/04/10 02:38:57;;;;;;;6.38;2.47;;;18.10;52.40;;;;;;5020257;28;20095;-58
2022/04/10 02:41:23;;;;;;;7.18;2.60;;;18.10;52.70;;;;;;5016811;28;20037;-58
2022/04/10 02:43:49;;;;;;;7.03;2.83;;;18.10;52.50;;;;;;5020938;28;20068;-58
2022/04/10 02:46:14;;;;;;;5.88;2.30;;;18.00;52.20;;;;;;5009634;28;20034;-58
2022/04/10 02:48:40;;;;;;;7.97;2.60;;;18.00;52.30;;;;;;5013189;28;20396;-58
2022/04/10 02:51:06;;;;;;;6.97;2.55;;;18.00;53.40;;;;;;5023618;28;20049;-58
2022/04/10 02:53:32;;;;;;;5.78;2.28;;;18.00;52.30;;;;;;5012928;28;20022;-58
2022/04/10 02:55:57;;;;;;;6.28;2.30;;;18.00;52.50;;;;;;5012944;28;20410;-58
2022/04/10 02:58:24;;;;;;;6.38;2.45;;;18.00;52.30;;;;;;5016246;28;20028;-58
2022/04/10 03:00:50;;;;;;;8.02;2.33;;;18.00;52.30;;;;;;5018527;28;20050;-58
2022/04/10 03:03:16;;;;;;;6.07;2.40;;;17.90;52.60;;;;;;5009634;28;20026;-58
2022/04/10 03:05:41;;;;;;;7.13;2.30;;;17.90;52.50;;;;;;5018669;28;20033;-58
2022/04/10 03:08:07;;;;;;;7.22;2.50;;;17.90;52.50;;;;;;5013577;28;20684;-58
2022/04/10 03:10:33;;;;;;;8.23;2.45;;;17.90;52.50;;;;;;5016989;28;20152;-58
2022/04/10 03:12:58;;;;;;;6.07;2.50;;;17.80;52.70;;;;;;5008348;28;20018;-58
2022/04/10 03:15:24;;;;;;;6.13;2.05;;;17.80;52.30;;;;;;5016343;28;20045;-58
2022/04/10 03:17:50;;;;;;;7.80;2.42;;;17.90;52.50;;;;;;5021389;28;20029;-59
2022/04/10 03:20:15;;;;;;;8.57;2.42;;;17.80;52.80;;;;;;5014309;28;20506;-58
2022/04/10 03:22:41;;;;;;;5.60;1.85;;;17.80;53.00;;;;;;5012661;28;20119;-58
2022/04/10 03:25:07;;;;;;;5.00;2.08;;;17.80;53.00;;;;;;5012481;28;20053;-58
2022/04/10 03:27:33;;;;;;;6.50;2.15;;;17.80;52.80;;;;;;5011421;28;20060;-58
2022/04/10 03:29:59;;;;;;;5.65;2.40;;;17.80;52.60;;;;;;5014424;28;20029;-58
2022/04/10 03:32:24;;;;;;;7.13;2.42;;;17.70;53.20;;;;;;5015903;28;20034;-58
2022/04/10 03:34:50;;;;;;;7.03;2.30;;;17.70;52.80;;;;;;5018092;28;20494;-58
2022/04/10 03:37:15;;;;;;;4.65;2.00;;;17.70;53.10;;;;;;5020250;28;20160;-58
2022/04/10 03:39:41;;;;;;;6.03;2.30;;;17.70;52.70;;;;;;5013842;28;20072;-58
2022/04/10 03:42:07;;;;;;;5.85;2.00;;;17.70;53.20;;;;;;5016311;28;20029;-58
2022/04/10 03:44:33;;;;;;;8.23;2.13;;;17.70;53.20;;;;;;5017238;28;20050;-59
2022/04/10 03:46:58;;;;;;;5.18;2.22;;;17.70;53.20;;;;;;5016541;28;20436;-58
2022/04/10 03:49:24;;;;;;;7.13;2.40;;;17.60;53.30;;;;;;5015858;28;20478;-58
2022/04/10 03:51:50;;;;;;;5.65;2.15;;;17.60;53.40;;;;;;5010484;28;20530;-59
2022/04/10 03:54:15;;;;;;;5.95;2.25;;;17.60;53.20;;;;;;5014749;28;20502;-58
2022/04/10 03:56:41;;;;;;;5.03;2.10;;;17.60;53.20;;;;;;5017485;28;20041;-58
2022/04/10 03:59:07;;;;;;;5.18;1.98;;;17.60;53.40;;;;;;5018073;28;20098;-58
2022/04/10 04:01:32;;;;;;;4.55;1.85;;;17.50;53.20;;;;;;5023692;28;20195;-58
2022/04/10 04:03:58;;;;;;;5.63;1.73;;;17.50;53.10;;;;;;5014790;28;20034;-58
2022/04/10 04:06:24;;;;;;;4.63;2.00;;;17.50;53.50;;;;;;5018289;28;20480;-58
2022/04/10 04:08:49;;;;;;;6.57;1.80;;;17.50;53.10;;;;;;5019549;28;20036;-58
2022/04/10 04:11:15;;;;;;;4.15;1.83;;;17.50;53.30;;;;;;5016911;28;20026;-58
2022/04/10 04:13:41;;;;;;;5.60;2.05;;;17.50;53.30;;;;;;5022020;28;20029;-58
2022/04/10 04:16:07;;;;;;;4.20;1.90;;;17.50;53.40;;;;;;5016955;28;20025;-58
2022/04/10 04:18:32;;;;;;;5.05;1.95;;;17.40;53.20;;;;;;5016833;28;20513;-58
2022/04/10 04:20:58;;;;;;;5.03;1.88;;;17.40;53.40;;;;;;5018330;28;20026;-58
2022/04/10 04:23:24;;;;;;;3.92;1.77;;;17.40;53.20;;;;;;5024315;28;20044;-58
2022/04/10 04:25:50;;;;;;;5.00;1.92;;;17.40;53.10;;;;;;5015420;28;20033;-58
2022/04/10 04:28:15;;;;;;;5.03;1.80;;;17.40;53.20;;;;;;5015737;28;20029;-58
2022/04/10 04:30:41;;;;;;;5.47;1.90;;;17.30;53.30;;;;;;5018901;28;20040;-58
2022/04/10 04:33:07;;;;;;;4.05;1.60;;;17.30;52.90;;;;;;5021966;28;20021;-58
2022/04/10 04:35:33;;;;;;;6.97;1.88;;;17.30;53.20;;;;;;5020192;28;20415;-58
2022/04/10 04:38:00;;;;;;;4.97;1.55;;;17.30;53.00;;;;;;5021979;28;20033;-58
2022/04/10 04:40:25;;;;;;;4.72;1.85;;;17.30;53.00;;;;;;5022002;28;20180;-58
2022/04/10 04:42:51;;;;;;;5.45;2.08;;;17.30;53.10;;;;;;5019643;28;20046;-58
2022/04/10 04:45:18;;;;;;;5.13;1.92;;;17.20;52.80;;;;;;5019755;28;20049;-58
2022/04/10 04:47:44;;;;;;;3.88;1.80;;;17.30;53.10;;;;;;5015793;28;20116;-58
2022/04/10 04:50:10;;;;;;;6.05;2.00;;;17.20;52.90;;;;;;5017578;28;20394;-58
2022/04/10 04:52:35;;;;;;;4.97;1.80;;;17.20;52.80;;;;;;5019868;28;20030;-59
2022/04/10 04:55:01;;;;;;;3.80;1.73;;;17.20;52.90;;;;;;5023264;28;20100;-58
2022/04/10 04:57:27;;;;;;;4.57;1.75;;;17.20;53.10;;;;;;5021720;28;20141;-58
2022/04/10 04:59:52;;;;;;;6.07;1.70;;;17.20;52.90;;;;;;5017462;28;20470;-58
2022/04/10 05:02:18;;;;;;;5.00;1.55;;;17.20;52.80;;;;;;5024111;28;20026;-58
2022/04/10 05:04:44;;;;;;;5.50;1.73;;;17.10;52.80;;;;;;5020537;28;20037;-58
2022/04/10 05:07:09;;;;;;;5.57;2.03;;;17.10;52.70;;;;;;5020271;28;20104;-59
2022/04/10 05:09:35;;;;;;;4.00;1.63;;;17.10;52.80;;;;;;5016692;28;20108;-58
2022/04/10 05:12:00;;;;;;;4.25;1.70;;;17.10;52.80;;;;;;5021203;28;20050;-58
2022/04/10 05:14:26;;;;;;;6.72;1.83;;;17.10;53.00;;;;;;5019578;28;20064;-58
2022/04/10 05:16:52;;;;;;;6.20;1.88;;;17.10;53.00;;;;;;5019340;28;20413;-58
2022/04/10 05:19:17;;;;;;;5.07;1.80;;;17.10;53.10;;;;;;5017979;28;20498;-58
2022/04/10 05:21:43;;;;;;;4.10;1.60;;;17.00;52.90;;;;;;5018720;28;20565;-58
2022/04/10 05:24:09;;;;;;;5.90;1.80;;;17.00;52.80;;;;;;5018809;28;20025;-58
2022/04/10 05:26:34;;;;;;;5.47;1.70;;;17.00;53.00;;;;;;5015661;28;20038;-58
2022/04/10 05:29:00;;;;;;;4.45;1.75;;;16.90;52.40;;;;;;5014999;28;20033;-58
2022/04/10 05:31:26;;;;;;;4.97;1.52;;;17.00;52.80;;;;;;5019726;28;20041;-58
2022/04/10 05:33:51;;;;;;;3.90;1.48;;;17.00;53.00;;;;;;5015350;28;20125;-58
2022/04/10 05:36:17;;;;;;;5.97;1.63;;;16.90;53.10;;;;;;5018445;28;20128;-58
2022/04/10 05:38:45;;;;;;;4.00;1.60;;;16.90;52.80;;;;;;5019948;28;20017;-58
2022/04/10 05:41:12;;;;;;;2.83;1.30;;;16.90;52.40;;;;;;5022448;28;20120;-58
2022/04/10 05:43:38;;;;;;;5.65;1.70;;;16.90;52.90;;;;;;5022121;28;20057;-58
2022/04/10 05:46:03;;;;;;;3.85;1.60;;;16.90;52.70;;;;;;5016729;28;20097;-58
2022/04/10 05:48:29;;;;;;;5.53;2.13;;;16.90;52.70;;;;;;5020518;28;20033;-58
2022/04/10 05:50:55;;;;;;;5.18;1.85;;;16.90;53.00;;;;;;5024881;28;20038;-58
2022/04/10 05:53:20;;;;;;;5.57;1.73;;;16.90;53.00;;;;;;5014714;28;20483;-58
2022/04/10 05:55:46;;;;;;;5.10;1.70;;;16.80;52.70;;;;;;5019904;28;20490;-58
2022/04/10 05:58:11;;;;;;;4.35;1.65;;;16.80;52.40;;;;;;5013346;28;20040;-58
2022/04/10 06:00:37;;;;;;;4.25;1.50;;;16.80;52.60;;;;;;5020824;28;20536;-58
2022/04/10 06:03:03;;;;;;;4.57;1.60;;;16.80;52.70;;;;;;5017670;28;20482;-58
2022/04/10 06:05:29;;;;;;;3.42;1.38;;;16.80;52.60;;;;;;5017299;28;20060;-58
2022/04/10 06:07:54;;;;;;;4.72;1.33;;;16.80;52.70;;;;;;5019356;28;20045;-58
2022/04/10 06:10:20;;;;;;;4.10;1.70;;;16.70;52.60;;;;;;5014864;28;20076;-58
2022/04/10 06:12:46;;;;;;;3.72;1.70;;;16.70;52.50;;;;;;5017239;28;20021;-58
2022/04/10 06:15:12;;;;;;;5.80;1.55;;;16.70;52.40;;;;;;5014467;28;20808;-58
2022/04/10 06:17:37;;;;;;;5.03;1.80;;;16.70;52.30;;;;;;5014855;28;20018;-58
2022/04/10 06:20:03;;;;;;;3.78;1.60;;;16.70;52.50;;;;;;5014545;28;20021;-59
2022/04/10 06:22:29;;;;;;;3.00;1.50;;;16.70;52.60;;;;;;5014843;28;20017;-59
2022/04/10 06:24:55;;;;;;;4.80;1.60;;;16.70;52.40;;;;;;5019561;28;20100;-58
2022/04/10 06:27:21;;;;;;;4.70;1.67;;;16.70;52.40;;;;;;5014562;28;20066;-59
2022/04/10 06:29:47;;;;;;;4.53;1.27;;;16.70;52.40;;;;;;5020946;28;20033;-59
2022/04/10 06:32:13;;;;;;;3.45;1.40;;;16.70;52.60;;;;;;5017709;28;20025;-60
2022/04/10 06:34:39;;;;;;;4.90;1.50;;;16.70;52.60;;;;;;5016117;28;20108;-60
2022/04/10 06:37:04;;;;;;;2.85;1.40;;;16.70;52.60;;;;;;5020064;28;20029;-60
2022/04/10 06:39:30;;;;;;;4.57;1.40;;;16.60;52.50;;;;;;5022262;28;20044;-59
2022/04/10 06:41:56;;;;;;;5.68;1.58;;;16.60;52.50;;;;;;5020234;28;20414;-60
2022/04/10 06:44:21;;;;;;;3.05;1.50;;;16.60;52.60;;;;;;5017508;28;20514;-59
2022/04/10 06:46:47;;;;;;;3.15;1.42;;;16.60;52.50;;;;;;5022803;28;20127;-60
2022/04/10 06:49:13;;;;;;;4.85;1.60;;;16.60;52.50;;;;;;5022543;28;20033;-60
2022/04/10 06:51:39;;;;;;;4.35;1.40;;;16.60;52.50;;;;;;5025651;28;20045;-59
2022/04/10 06:54:05;;;;;;;4.07;1.50;;;16.60;52.50;;;;;;5014572;28;20029;-59
2022/04/10 06:56:31;;;;;;;2.05;1.20;;;16.60;52.60;;;;;;5018107;28;20383;-60
2022/04/10 06:58:57;;;;;;;4.75;1.58;;;16.60;52.60;;;;;;5014920;28;20021;-60
2022/04/10 07:01:22;;;;;;;2.78;1.40;;;16.60;52.60;;;;;;5019188;28;20485;-60
2022/04/10 07:03:48;;;;;;;3.13;1.60;;;16.60;52.60;;;;;;5015207;28;20049;-60
2022/04/10 07:06:14;;;;;;;3.08;1.20;;;16.50;52.60;;;;;;5020298;28;20048;-59
2022/04/10 07:08:43;;;;;;;4.25;1.45;;;16.50;52.60;;;;;;5018723;28;20029;-60
2022/04/10 07:11:09;;;;;;;2.72;1.30;;;16.50;52.70;;;;;;5012619;28;20069;-60
2022/04/10 07:13:34;;;;;;;3.20;1.40;;;16.50;52.70;;;;;;5015747;28;20458;-59
2022/04/10 07:16:00;;;;;;;3.72;1.50;;;16.50;52.70;;;;;;5017147;28;20057;-59
2022/04/10 07:18:26;;;;;;;3.90;1.38;;;16.50;52.70;;;;;;5016789;28;20441;-59
2022/04/10 07:20:51;;;;;;;2.75;1.23;;;16.50;52.70;;;;;;5020376;28;20048;-59
2022/04/10 07:26:06;;;;;;;3.35;1.42;;;16.50;52.80;;;;;;5017588;28;20500;-59
2022/04/10 07:28:32;;;;;;;3.08;1.30;;;16.50;53.20;;;;;;5018525;28;20021;-60
2022/04/10 07:30:58;;;;;;;3.38;1.50;;;16.50;53.10;;;;;;5017568;28;20457;-59
2022/04/10 07:33:24;;;;;;;5.90;1.45;;;16.50;53.10;;;;;;5012679;28;20029;-59
2022/04/10 07:35:49;;;;;;;3.40;1.50;;;16.50;53.10;;;;;;5023029;28;20033;-60
2022/04/10 07:38:17;;;;;;;4.28;1.48;;;16.50;53.20;;;;;;5020467;28;20026;-59
2022/04/10 07:40:43;;;;;;;6.15;1.75;;;16.50;53.20;;;;;;5018560;28;20101;-60
2022/04/10 07:43:11;;;;;;;4.22;1.45;;;16.50;53.30;;;;;;5021176;28;20090;-60
2022/04/10 07:48:30;;;;;;;18.88;1.92;;;16.50;53.50;;;;;;5021389;28;20121;-62
2022/04/10 07:50:57;;;;;;;6.78;1.60;;;16.50;53.50;;;;;;5022745;28;20712;-62
2022/04/10 07:53:23;;;;;;;7.63;1.50;;;16.50;53.50;;;;;;5022373;28;20557;-62
2022/04/10 07:55:48;;;;;;;6.75;1.40;;;16.60;53.80;;;;;;5024146;28;20025;-63
2022/04/10 07:58:14;;;;;;;6.43;1.73;;;16.60;53.80;;;;;;5017317;28;20174;-62
2022/04/10 08:00:40;;;;;;;5.68;1.67;;;16.60;53.80;;;;;;5022580;28;20041;-62
2022/04/10 08:03:05;;;;;;;5.55;1.70;;;16.60;53.80;;;;;;5022177;28;20967;-62
2022/04/10 08:05:36;;;;;;;5.03;1.58;;;16.60;53.80;;;;;;5022329;28;20045;-62
2022/04/10 08:08:02;;;;;;;4.97;1.42;;;16.60;53.90;;;;;;5016620;28;20080;-62
2022/04/10 08:10:29;;;;;;;5.13;1.52;;;16.60;53.90;;;;;;5006974;28;20033;-62
2022/04/10 08:12:55;;;;;;;2.95;1.30;;;16.60;54.00;;;;;;5025840;28;20046;-62
2022/04/10 08:15:20;;;;;;;5.43;1.20;;;16.70;54.00;;;;;;5022450;28;20048;-62
2022/04/10 08:17:46;;;;;;;4.78;1.30;;;16.60;53.90;;;;;;5023396;28;20406;-62
2022/04/10 08:20:12;;;;;;;5.88;1.40;;;16.70;54.10;;;;;;5022675;28;20037;-62
2022/04/10 08:22:39;;;;;;;4.55;1.60;;;16.70;54.20;;;;;;5023570;28;20032;-62
2022/04/10 08:25:09;;;;;;;10.25;1.65;;;16.70;54.60;;;;;;5020222;28;20034;-62
2022/04/10 08:27:36;;;;;;;3.72;1.20;;;16.70;54.60;;;;;;5014866;28;20030;-63
2022/04/10 08:30:03;;;;;;;5.82;1.42;;;16.80;55.00;;;;;;5022714;28;20037;-62
2022/04/10 08:32:38;;;;;;;6.75;1.67;;;16.80;55.20;;;;;;5021906;28;20092;-62
2022/04/10 08:35:04;;;;;;;4.50;1.40;;;16.80;55.30;;;;;;5023326;28;20089;-62
2022/04/10 08:37:30;;;;;;;7.00;1.65;;;16.80;55.50;;;;;;5019594;28;20196;-62
2022/04/10 08:39:55;;;;;;;7.65;1.52;;;16.80;55.70;;;;;;5016778;28;20410;-62
2022/04/10 08:42:22;;;;;;;6.90;1.77;;;16.80;56.10;;;;;;5020185;28;20312;-62
2022/04/10 08:44:49;;;;;;;7.55;1.83;;;16.90;56.20;;;;;;5022388;28;20037;-62
2022/04/10 08:47:23;;;;;;;8.57;1.70;;;16.80;54.00;;;;;;5017945;28;20030;-62
2022/04/10 08:49:50;;;;;;;8.80;1.70;;;16.70;50.50;;;;;;5004734;28;20037;-62
2022/04/10 08:52:16;;;;;;;7.43;1.90;;;16.60;50.20;;;;;;5019755;28;20029;-62
2022/04/10 08:54:43;;;;;;;10.25;1.90;;;16.50;49.80;;;;;;5019165;28;20060;-62
2022/04/10 08:57:09;;;;;;;5.53;1.45;;;16.50;49.70;;;;;;5017340;28;20030;-64
2022/04/10 08:59:34;;;;;;;5.63;1.65;;;16.40;49.30;;;;;;5018927;28;20022;-62
2022/04/10 09:02:01;;;;;;;7.93;1.67;;;16.50;51.00;;;;;;5017334;28;20026;-62
2022/04/10 09:04:26;;;;;;;8.45;1.77;;;16.40;50.20;;;;;;5022470;28;20034;-62
2022/04/10 09:07:03;;;;;;;5.75;1.60;;;16.40;48.50;;;;;;5016280;28;20667;-62
2022/04/10 09:09:31;;;;;;;6.22;1.60;;;16.40;51.10;;;;;;5021410;28;20092;-61
2022/04/10 09:12:00;;;;;;;4.75;1.40;;;16.40;49.70;;;;;;5023465;28;20379;-62
2022/04/10 09:14:35;;;;;;;4.93;1.55;;;16.40;49.10;;;;;;5016643;28;20026;-62
2022/04/10 09:17:11;;;;;;;4.95;1.65;;;16.40;48.10;;;;;;5022094;28;20112;-62
2022/04/10 09:19:38;;;;;;;12.65;3.42;;;16.30;45.70;;;;;;5021859;28;20041;-61
2022/04/10 09:22:26;;;;;;;11.43;4.07;;;16.40;47.90;;;;;;5018949;28;20025;-61
2022/04/10 09:25:07;;;;;;;10.88;3.25;;;16.50;48.80;;;;;;5021068;28;20040;-61
2022/04/10 09:27:38;;;;;;;9.38;3.50;;;16.60;48.60;;;;;;5021894;28;20033;-61
2022/04/10 09:30:05;;;;;;;11.07;4.22;;;16.60;48.70;;;;;;5019491;28;20061;-62
2022/04/10 09:32:40;;;;;;;10.98;3.38;;;16.70;48.90;;;;;;5012881;28;20040;-62
2022/04/10 09:35:07;;;;;;;14.77;3.30;;;16.80;49.70;;;;;;5028078;28;20029;-62
2022/04/10 09:37:40;;;;;;;11.50;3.53;;;16.80;50.10;;;;;;5027189;28;20044;-62
2022/04/10 09:40:26;;;;;;;11.95;3.65;;;16.90;50.20;;;;;;5018978;28;20017;-62
2022/04/10 09:43:07;;;;;;;10.32;3.47;;;16.90;50.10;;;;;;5021528;28;20889;-62
2022/04/10 09:45:45;;;;;;;10.60;3.25;;;17.00;50.40;;;;;;5024198;28;20529;-62
2022/04/10 09:48:32;;;;;;;10.20;3.13;;;17.00;50.40;;;;;;5022898;28;20034;-62
2022/04/10 09:50:59;;;;;;;12.18;3.20;;;17.00;50.40;;;;;;5019846;28;20041;-62
2022/04/10 09:53:29;;;;;;;14.38;3.20;;;17.00;50.40;;;;;;5017474;28;20041;-61
2022/04/10 09:56:05;;;;;;;16.33;3.13;;;17.10;50.50;;;;;;5019588;28;20025;-62
2022/04/10 09:58:34;;;;;;;20.98;3.42;;;17.10;50.70;;;;;;5021024;28;20071;-62
2022/04/10 10:01:00;;;;;;;16.17;3.45;;;17.10;50.80;;;;;;5021243;28;20107;-62
2022/04/10 10:03:28;;;;;;;13.80;3.20;;;17.20;50.90;;;;;;5019630;28;20132;-62
2022/04/10 10:05:54;;;;;;;17.23;3.17;;;17.10;50.80;;;;;;5020251;28;20450;-62
2022/04/10 10:08:20;;;;;;;15.85;2.95;;;17.20;51.00;;;;;;5022655;28;20061;-62
2022/04/10 10:10:46;;;;;;;14.38;2.72;;;17.20;51.90;;;;;;5016551;28;20215;-62
2022/04/10 10:13:14;;;;;;;22.92;3.03;;;17.30;50.90;;;;;;5016599;28;20029;-61
2022/04/10 10:15:41;;;;;;;16.05;2.92;;;17.30;50.90;;;;;;5011300;28;20029;-62
2022/04/10 10:18:08;;;;;;;13.75;2.92;;;17.30;51.00;;;;;;5018087;28;20101;-62
2022/04/10 10:20:34;;;;;;;14.05;2.95;;;17.40;51.10;;;;;;5018803;28;20064;-62
2022/04/10 10:23:05;;;;;;;12.50;2.97;;;17.40;51.20;;;;;;5011678;28;20111;-62
2022/04/10 10:25:35;;;;;;;12.05;2.70;;;17.40;51.40;;;;;;5016999;28;20685;-62
2022/04/10 10:28:29;;;;;;;16.38;2.50;;;17.50;51.50;;;;;;5015916;28;20029;-62
2022/04/10 10:31:24;;;;;;;12.95;2.70;;;17.50;51.60;;;;;;5018499;28;20398;-62
2022/04/10 10:33:57;;;;;;;13.30;2.58;;;17.50;51.80;;;;;;4999873;28;20105;-62
2022/04/10 10:36:26;;;;;;;12.18;2.00;;;17.60;52.80;;;;;;5002442;28;20022;-62
2022/04/10 10:38:56;;;;;;;13.07;2.70;;;17.60;52.00;;;;;;4999692;28;20457;-62
2022/04/10 10:41:21;;;;;;;11.13;2.30;;;17.60;52.00;;;;;;4999410;28;20030;-62
2022/04/10 10:43:47;;;;;;;11.02;2.30;;;17.60;52.20;;;;;;4998531;28;20156;-62
2022/04/10 10:46:32;;;;;;;12.63;2.40;;;17.70;52.20;;;;;;4996919;28;20142;-62
2022/04/10 10:49:18;;;;;;;11.48;2.78;;;17.70;52.30;;;;;;5000641;28;20116;-62
2022/04/10 10:51:44;;;;;;;11.25;2.22;;;17.70;52.30;;;;;;5003345;28;20133;-62
2022/04/10 10:54:14;;;;;;;10.35;2.40;;;17.70;52.30;;;;;;5001506;28;20958;-62
2022/04/10 10:56:41;;;;;;;9.10;2.05;;;17.70;52.50;;;;;;5002183;28;20033;-62
2022/04/10 10:59:20;;;;;;;12.82;2.15;;;17.80;52.60;;;;;;4999067;28;20026;-62
2022/04/10 11:02:17;;;;;;;8.02;2.15;;;17.80;52.60;;;;;;5018945;28;20030;-62
2022/04/10 11:04:47;;;;;;;8.93;1.92;;;17.80;52.60;;;;;;4998001;28;20041;-62
2022/04/10 11:07:20;;;;;;;7.72;2.42;;;17.80;52.40;;;;;;5001634;28;20026;-62
2022/04/10 11:09:47;;;;;;;8.60;2.00;;;17.80;52.10;;;;;;5011822;28;20464;-62
2022/04/10 11:12:13;;;;;;;10.65;2.22;;;17.80;52.00;;;;;;5017904;28;20128;-62
2022/04/10 11:14:40;;;;;;;10.85;2.20;;;17.80;51.90;;;;;;5023653;28;20022;-62
2022/04/10 11:17:17;;;;;;;9.13;2.20;;;17.80;51.60;;;;;;5018516;28;20565;-62
2022/04/10 11:19:45;;;;;;;7.00;1.65;;;17.90;51.60;;;;;;5018561;28;20017;-62
2022/04/10 11:22:35;;;;;;;11.43;1.92;;;17.90;52.60;;;;;;5025946;28;20034;-64
2022/04/10 11:25:08;;;;;;;6.85;1.65;;;17.90;51.50;;;;;;5011002;28;20065;-62
2022/04/10 11:27:53;;;;;;;8.05;1.80;;;17.90;51.50;;;;;;5016384;28;20112;-62
2022/04/10 11:30:39;;;;;;;6.22;2.10;;;18.00;51.50;;;;;;5015442;28;20046;-62
2022/04/10 11:33:05;;;;;;;;;;;18.00;51.50;;;;;;5022035;28;20084;-63
2022/04/10 11:35:32;;;;;;;9.15;1.95;;;18.00;51.60;;;;;;5020982;28;19916;-62
2022/04/10 11:38:02;;;;;;;8.05;1.90;;;18.00;51.50;;;;;;5022667;28;20028;-62
2022/04/10 11:40:32;;;;;;;9.40;2.25;;;18.00;51.70;;;;;;5017293;28;20035;-63
2022/04/10 11:42:59;;;;;;;11.73;2.00;;;18.10;51.60;;;;;;5017037;28;20037;-61
2022/04/10 11:45:26;;;;;;;7.80;1.80;;;18.20;52.00;;;;;;5026284;28;20533;-63
2022/04/10 11:47:51;;;;;;;9.25;1.70;;;18.20;52.50;;;;;;5023702;28;20043;-63
2022/04/10 11:50:21;;;;;;;7.30;1.60;;;18.20;52.30;;;;;;5020141;28;20391;-62
2022/04/10 11:53:03;;;;;;;10.63;1.73;;;18.30;52.70;;;;;;5026368;28;20096;-62
2022/04/10 11:55:37;;;;;;;8.32;1.70;;;18.30;52.70;;;;;;5015424;28;20604;-62
2022/04/10 11:58:10;;;;;;;7.83;1.90;;;18.30;52.80;;;;;;5019592;28;20406;-62
2022/04/10 12:00:39;;;;;;;8.30;1.58;;;18.40;52.70;;;;;;5011801;28;20030;-63
2022/04/10 12:03:06;;;;;;;7.45;1.50;;;18.40;52.60;;;;;;5024642;28;20033;-63
2022/04/10 12:05:32;;;;;;;8.82;1.88;;;18.40;52.40;;;;;;5004437;28;20200;-63
2022/04/10 12:07:59;;;;;;;6.75;1.70;;;18.40;52.30;;;;;;5019851;28;20022;-63
2022/04/10 12:10:26;;;;;;;9.48;1.98;;;18.40;52.30;;;;;;5016573;28;20128;-63
2022/04/10 12:12:52;;;;;;;5.65;1.50;;;18.50;52.30;;;;;;5018103;28;21055;-63
2022/04/10 12:15:19;;;;;;;9.02;1.70;;;18.50;52.30;;;;;;5017944;28;20057;-63
2022/04/10 12:17:48;;;;;;;7.10;1.50;;;18.50;52.20;;;;;;5015810;28;20022;-63
2022/04/10 12:20:14;;;;;;;8.20;1.70;;;18.50;52.10;;;;;;5021951;28;20137;-63
2022/04/10 12:22:43;;;;;;;6.53;1.45;;;18.50;52.10;;;;;;5022663;28;20486;-63
2022/04/10 12:25:09;;;;;;;5.72;1.58;;;18.60;52.00;;;;;;5015358;28;20257;-63
2022/04/10 12:27:35;;;;;;;3.67;1.50;;;18.60;52.20;;;;;;5022665;28;20546;-63
2022/04/10 12:30:05;;;;;;;5.70;1.55;;;18.60;52.60;;;;;;5020278;28;20033;-63
2022/04/10 12:32:31;;;;;;;7.78;1.58;;;18.60;52.50;;;;;;5026501;28;20074;-62
2022/04/10 12:35:06;;;;;;;5.25;1.58;;;18.70;52.70;;;;;;5021801;28;20029;-64
2022/04/10 12:37:32;;;;;;;;;;;18.70;52.80;;;;;;5023115;28;20025;-63
2022/04/10 12:40:00;;;;;;;9.07;1.77;;;18.70;52.70;;;;;;5020836;28;19909;-63
2022/04/10 12:42:26;;;;;;;10.52;2.10;;;18.70;52.60;;;;;;5048509;28;20054;-63
2022/04/10 12:44:56;;;;;;;11.02;1.88;;;18.80;52.90;;;;;;5020626;28;20068;-62
2022/04/10 12:47:44;;;;;;;6.40;1.60;;;18.80;52.60;;;;;;5023898;28;20502;-62
2022/04/10 12:50:14;;;;;;;7.90;1.70;;;18.80;52.60;;;;;;5017684;28;20041;-62
2022/04/10 12:52:41;;;;;;;6.13;1.60;;;18.80;52.70;;;;;;5019798;28;20025;-62